Bunun Fortune — VRNZ5 — position and weather

sailwx.info

Track history (hours):
 
Tides and Currents Weather Stations Pressure Air Temp Water Temp Dewpoint Dewpoint Depression Visibility Wind Speed Wind Dir Waves Ship Positions

Bunun Fortune

Last reported at 2017-Sep-04 21:58 UTC. Time now 2017-Sep-21 17:35 UTC.
Position N 08°60' W 079°36'.
Warning: this ship's position is 16 days out of date.

Length 180 m; draft 10.2 m.

Type: Cargo ship. MMSI: 477193300.

Date/timePositionNaut miles runAvg speedWind from/ knotsBaromVisibWave heightAir tempDewpointWater temp
2017-Sep-04 21:58N 08°60' W 079°36'0 0.7
2017-Sep-04 21:21N 09°00' W 079°36'1 2.8
2017-Sep-04 20:58N 09°01' W 079°37'4 2.5
2017-Sep-04 19:26N 09°04' W 079°40'11 6.3
2017-Sep-04 17:41N 09°10' W 079°49'2 9.5
2017-Sep-04 17:28N 09°11' W 079°51'4 8.8
2017-Sep-04 17:00N 09°12' W 079°55'3 5.9
2017-Sep-04 16:30N 09°15' W 079°55'0 0.4
2017-Sep-04 15:58N 09°15' W 079°55'0 0.0
2017-Sep-04 15:28N 09°15' W 079°55'0 0.0
2017-Sep-04 14:58N 09°15' W 079°55'0 0.0
2017-Sep-04 14:28N 09°15' W 079°55'0 0.0
2017-Sep-04 13:58N 09°15' W 079°55'0 0.0
2017-Sep-04 13:28N 09°15' W 079°55'0 0.0
2017-Sep-04 12:58N 09°15' W 079°55'0 0.0
2017-Sep-04 12:28N 09°15' W 079°55'0 0.0
2017-Sep-04 11:58N 09°15' W 079°55'0 0.0
2017-Sep-04 11:28N 09°15' W 079°55'0 0.1
2017-Sep-04 10:58N 09°15' W 079°55'0 0.1
2017-Sep-04 10:28N 09°15' W 079°55'0 0.2
2017-Sep-04 09:58N 09°15' W 079°55'0 0.1
2017-Sep-04 09:28N 09°15' W 079°55'0 0.0
2017-Sep-04 08:58N 09°15' W 079°55'0 0.0
2017-Sep-04 08:25N 09°15' W 079°55'0 0.0
2017-Sep-04 07:58N 09°15' W 079°55'0 0.0
2017-Sep-04 07:28N 09°15' W 079°55'0 0.0
2017-Sep-04 06:58N 09°15' W 079°55'0 0.0
2017-Sep-04 06:28N 09°15' W 079°55'0 0.1
2017-Sep-04 05:58N 09°15' W 079°55'1 2.4
2017-Sep-04 05:30N 09°16' W 079°55'0 0.7
2017-Sep-04 05:00N 09°16' W 079°55'0 0.5
2017-Sep-04 04:30N 09°17' W 079°55'0 0.5
2017-Sep-04 04:00N 09°17' W 079°55'1 2.4
2017-Sep-04 03:30N 09°18' W 079°55'3 5.7
2017-Sep-04 03:00N 09°21' W 079°55'3 5.8
2017-Sep-04 02:30N 09°24' W 079°55'2 3.8
2017-Sep-04 02:00N 09°26' W 079°55'2 3.4
2017-Sep-04 01:30N 09°27' W 079°57'0 0.2
2017-Sep-04 00:59N 09°27' W 079°56'0 0.0
2017-Sep-04 00:29N 09°27' W 079°56'0 0.0
2017-Sep-03 23:59N 09°27' W 079°56'0 0.0
2017-Sep-03 23:29N 09°27' W 079°56'0 0.0
2017-Sep-03 22:59N 09°27' W 079°56'0 0.0
2017-Sep-03 22:29N 09°27' W 079°56'0 0.0
2017-Sep-03 21:59N 09°27' W 079°56'0 0.0
2017-Sep-03 21:29N 09°27' W 079°56'0 0.0
2017-Sep-03 20:59N 09°27' W 079°56'0 0.0
2017-Sep-03 20:29N 09°27' W 079°56'0 0.0
2017-Sep-03 19:59N 09°27' W 079°56'0 0.0
2017-Sep-03 19:29N 09°27' W 079°56'0 0.0
2017-Sep-03 18:59N 09°27' W 079°56'0 0.0
2017-Sep-03 18:29N 09°27' W 079°56'0 0.0
2017-Sep-03 17:59N 09°27' W 079°56'0 0.0
2017-Sep-03 17:29N 09°27' W 079°56'0 0.0
2017-Sep-03 16:59N 09°27' W 079°56'0 0.0
2017-Sep-03 16:29N 09°27' W 079°56'0 0.0
2017-Sep-03 15:59N 09°27' W 079°56'0 0.0
2017-Sep-03 15:29N 09°27' W 079°56'0 0.0
2017-Sep-03 14:59N 09°27' W 079°56'0 0.0
2017-Sep-03 13:59N 09°27' W 079°56'0 0.0
2017-Sep-03 13:29N 09°27' W 079°56'0 0.0
2017-Sep-03 12:59N 09°27' W 079°56'0 0.0
2017-Sep-03 12:29N 09°27' W 079°56'0 0.0
2017-Sep-03 11:59N 09°27' W 079°56'0 0.0
2017-Sep-03 11:29N 09°27' W 079°56'0 0.0
2017-Sep-03 10:56N 09°27' W 079°56'0 0.0
2017-Sep-03 10:29N 09°27' W 079°56'0 0.0
2017-Sep-03 09:59N 09°27' W 079°56'0 0.0
2017-Sep-03 09:29N 09°27' W 079°56'0 0.0
2017-Sep-03 08:59N 09°27' W 079°56'0 0.0
2017-Sep-03 08:29N 09°27' W 079°56'0 0.0
2017-Sep-03 07:59N 09°27' W 079°56'0 0.1
2017-Sep-03 07:30N 09°27' W 079°56'2 3.3
2017-Sep-03 07:00N 09°28' W 079°55'510.5
2017-Sep-03 06:30N 09°33' W 079°53'712.5
2017-Sep-03 05:56N 09°40' W 079°52'  
Track history (hours):
 
Tides and Currents Weather Stations Pressure Air Temp Water Temp Dewpoint Dewpoint Depression Visibility Wind Speed Wind Dir Waves Ship Positions

Bunun Fortune

Last reported at 2017-Sep-04 21:58 UTC. Time now 2017-Sep-21 17:35 UTC.
Position N 08°60' W 079°36'.
Warning: this ship's position is 16 days out of date.

Length 180 m; draft 10.2 m.

Type: Cargo ship. MMSI: 477193300.

Date/timePositionNaut miles runAvg speedWind from/ knotsBaromVisibWave heightAir tempDewpointWater temp
2017-Sep-04 21:58N 08°60' W 079°36'0 0.7
2017-Sep-04 21:21N 09°00' W 079°36'1 2.8
2017-Sep-04 20:58N 09°01' W 079°37'4 2.5
2017-Sep-04 19:26N 09°04' W 079°40'11 6.3
2017-Sep-04 17:41N 09°10' W 079°49'2 9.5
2017-Sep-04 17:28N 09°11' W 079°51'4 8.8
2017-Sep-04 17:00N 09°12' W 079°55'3 5.9
2017-Sep-04 16:30N 09°15' W 079°55'0 0.4
2017-Sep-04 15:58N 09°15' W 079°55'0 0.0
2017-Sep-04 15:28N 09°15' W 079°55'0 0.0
2017-Sep-04 14:58N 09°15' W 079°55'0 0.0
2017-Sep-04 14:28N 09°15' W 079°55'0 0.0
2017-Sep-04 13:58N 09°15' W 079°55'0 0.0
2017-Sep-04 13:28N 09°15' W 079°55'0 0.0
2017-Sep-04 12:58N 09°15' W 079°55'0 0.0
2017-Sep-04 12:28N 09°15' W 079°55'0 0.0
2017-Sep-04 11:58N 09°15' W 079°55'0 0.0
2017-Sep-04 11:28N 09°15' W 079°55'0 0.1
2017-Sep-04 10:58N 09°15' W 079°55'0 0.1
2017-Sep-04 10:28N 09°15' W 079°55'0 0.2
2017-Sep-04 09:58N 09°15' W 079°55'0 0.1
2017-Sep-04 09:28N 09°15' W 079°55'0 0.0
2017-Sep-04 08:58N 09°15' W 079°55'0 0.0
2017-Sep-04 08:25N 09°15' W 079°55'0 0.0
2017-Sep-04 07:58N 09°15' W 079°55'0 0.0
2017-Sep-04 07:28N 09°15' W 079°55'0 0.0
2017-Sep-04 06:58N 09°15' W 079°55'0 0.0
2017-Sep-04 06:28N 09°15' W 079°55'0 0.1
2017-Sep-04 05:58N 09°15' W 079°55'1 2.4
2017-Sep-04 05:30N 09°16' W 079°55'0 0.7
2017-Sep-04 05:00N 09°16' W 079°55'0 0.5
2017-Sep-04 04:30N 09°17' W 079°55'0 0.5
2017-Sep-04 04:00N 09°17' W 079°55'1 2.4
2017-Sep-04 03:30N 09°18' W 079°55'3 5.7
2017-Sep-04 03:00N 09°21' W 079°55'3 5.8
2017-Sep-04 02:30N 09°24' W 079°55'2 3.8
2017-Sep-04 02:00N 09°26' W 079°55'2 3.4
2017-Sep-04 01:30N 09°27' W 079°57'0 0.2
2017-Sep-04 00:59N 09°27' W 079°56'0 0.0
2017-Sep-04 00:29N 09°27' W 079°56'0 0.0
2017-Sep-03 23:59N 09°27' W 079°56'0 0.0
2017-Sep-03 23:29N 09°27' W 079°56'0 0.0
2017-Sep-03 22:59N 09°27' W 079°56'0 0.0
2017-Sep-03 22:29N 09°27' W 079°56'0 0.0
2017-Sep-03 21:59N 09°27' W 079°56'0 0.0
2017-Sep-03 21:29N 09°27' W 079°56'0 0.0
2017-Sep-03 20:59N 09°27' W 079°56'0 0.0
2017-Sep-03 20:29N 09°27' W 079°56'0 0.0
2017-Sep-03 19:59N 09°27' W 079°56'0 0.0
2017-Sep-03 19:29N 09°27' W 079°56'0 0.0
2017-Sep-03 18:59N 09°27' W 079°56'0 0.0
2017-Sep-03 18:29N 09°27' W 079°56'0 0.0
2017-Sep-03 17:59N 09°27' W 079°56'0 0.0
2017-Sep-03 17:29N 09°27' W 079°56'0 0.0
2017-Sep-03 16:59N 09°27' W 079°56'0 0.0
2017-Sep-03 16:29N 09°27' W 079°56'0 0.0
2017-Sep-03 15:59N 09°27' W 079°56'0 0.0
2017-Sep-03 15:29N 09°27' W 079°56'0 0.0
2017-Sep-03 14:59N 09°27' W 079°56'0 0.0
2017-Sep-03 13:59N 09°27' W 079°56'0 0.0
2017-Sep-03 13:29N 09°27' W 079°56'0 0.0
2017-Sep-03 12:59N 09°27' W 079°56'0 0.0
2017-Sep-03 12:29N 09°27' W 079°56'0 0.0
2017-Sep-03 11:59N 09°27' W 079°56'0 0.0
2017-Sep-03 11:29N 09°27' W 079°56'0 0.0
2017-Sep-03 10:56N 09°27' W 079°56'0 0.0
2017-Sep-03 10:29N 09°27' W 079°56'0 0.0
2017-Sep-03 09:59N 09°27' W 079°56'0 0.0
2017-Sep-03 09:29N 09°27' W 079°56'0 0.0
2017-Sep-03 08:59N 09°27' W 079°56'0 0.0
2017-Sep-03 08:29N 09°27' W 079°56'0 0.0
2017-Sep-03 07:59N 09°27' W 079°56'0 0.1
2017-Sep-03 07:30N 09°27' W 079°56'2 3.3
2017-Sep-03 07:00N 09°28' W 079°55'510.5
2017-Sep-03 06:30N 09°33' W 079°53'712.5
2017-Sep-03 05:56N 09°40' W 079°52'  

Dump ship's entire track history